createdAt,value
2017-10-18T00:00:48.163Z,0.00
2017-10-18T00:01:48.067Z,0.00
2017-10-18T00:02:46.564Z,0.00
2017-10-18T00:03:45.831Z,0.00
2017-10-18T00:04:45.962Z,0.00
2017-10-18T00:05:45.921Z,0.00
2017-10-18T00:06:45.968Z,0.00
2017-10-18T00:07:46.015Z,0.00
2017-10-18T00:08:46.058Z,0.00
2017-10-18T00:09:46.172Z,0.00
2017-10-18T00:10:46.218Z,0.00
2017-10-18T00:11:46.204Z,0.00
2017-10-18T00:12:46.250Z,0.00
2017-10-18T00:13:46.298Z,0.00
2017-10-18T00:14:46.406Z,0.00
2017-10-18T00:15:46.452Z,0.00
2017-10-18T00:16:46.434Z,0.00
2017-10-18T00:17:46.481Z,0.00
2017-10-18T00:18:46.528Z,0.00
2017-10-18T00:19:46.575Z,0.00
2017-10-18T00:20:46.687Z,0.00
2017-10-18T00:21:46.671Z,0.00
2017-10-18T00:22:46.715Z,0.00
2017-10-18T00:23:46.764Z,0.00
2017-10-18T00:24:46.812Z,0.00
2017-10-18T00:25:46.922Z,0.00
2017-10-18T00:26:46.904Z,0.00
2017-10-18T00:27:46.952Z,0.00
2017-10-18T00:28:46.995Z,0.00
2017-10-18T00:29:47.043Z,0.00
2017-10-18T00:30:47.158Z,0.00
2017-10-18T00:31:47.138Z,0.00
2017-10-18T00:32:47.180Z,0.00
2017-10-18T00:33:47.228Z,0.00
2017-10-18T00:34:47.275Z,0.00
2017-10-18T00:35:47.387Z,0.00
2017-10-18T00:36:47.368Z,0.00
2017-10-18T00:37:47.415Z,0.00
2017-10-18T00:38:47.468Z,0.00
2017-10-18T00:39:47.509Z,0.00
2017-10-18T00:40:47.621Z,0.00
2017-10-18T00:41:47.602Z,0.00
2017-10-18T00:42:47.651Z,0.00
2017-10-18T00:43:47.692Z,0.00
2017-10-18T00:44:47.745Z,0.00
2017-10-18T00:45:47.855Z,0.00
2017-10-18T00:46:47.835Z,0.00
2017-10-18T00:47:47.886Z,0.00
2017-10-18T00:48:47.930Z,0.00
2017-10-18T00:49:47.976Z,0.00
2017-10-18T00:50:48.090Z,0.00
2017-10-18T00:51:48.068Z,0.00
2017-10-18T00:52:48.115Z,0.00
2017-10-18T00:53:48.162Z,0.00
2017-10-18T00:54:48.211Z,0.00
2017-10-18T00:55:48.326Z,0.00
2017-10-18T00:56:48.305Z,0.00
2017-10-18T00:57:48.349Z,0.00
2017-10-18T00:58:48.395Z,0.00
2017-10-18T00:59:48.445Z,0.00
2017-10-18T01:00:48.566Z,0.00
2017-10-18T01:01:48.535Z,0.00
2017-10-18T01:02:48.582Z,0.00
2017-10-18T01:03:48.628Z,0.00
2017-10-18T01:04:48.673Z,0.00
2017-10-18T01:05:48.785Z,0.00
2017-10-18T01:06:48.833Z,0.00
2017-10-18T01:07:48.815Z,0.00
2017-10-18T01:08:48.862Z,0.00
2017-10-18T01:09:48.906Z,0.00
2017-10-18T01:10:48.953Z,0.00
2017-10-18T01:11:49.064Z,0.00
2017-10-18T01:12:49.046Z,0.00
2017-10-18T01:13:49.092Z,0.00
2017-10-18T01:14:49.139Z,0.00
2017-10-18T01:15:49.185Z,0.00
2017-10-18T01:16:49.299Z,0.00
2017-10-18T01:17:49.277Z,0.00
2017-10-18T01:18:49.324Z,0.00
2017-10-18T01:19:49.373Z,0.00
2017-10-18T01:20:49.420Z,0.00
2017-10-18T01:21:49.535Z,0.00
2017-10-18T01:22:49.511Z,0.00
2017-10-18T01:23:49.557Z,0.00
2017-10-18T01:24:49.604Z,0.00
2017-10-18T01:25:49.650Z,0.00
2017-10-18T01:26:49.760Z,0.00
2017-10-18T01:27:49.744Z,0.00
2017-10-18T01:28:49.789Z,0.00
2017-10-18T01:29:49.834Z,0.00
2017-10-18T01:30:49.889Z,0.00
2017-10-18T01:31:49.991Z,0.00
2017-10-18T01:32:50.801Z,0.00
2017-10-18T01:33:50.024Z,0.00
2017-10-18T01:34:50.073Z,0.00
2017-10-18T01:35:50.114Z,0.00
2017-10-18T01:36:50.224Z,0.00
2017-10-18T01:37:50.205Z,0.00
2017-10-18T01:38:50.252Z,0.00
2017-10-18T01:39:50.298Z,0.00
2017-10-18T01:40:50.345Z,0.00
2017-10-18T01:41:50.498Z,0.00
2017-10-18T01:42:50.438Z,0.00
2017-10-18T01:43:50.485Z,0.00
2017-10-18T01:44:50.529Z,0.00
2017-10-18T01:45:50.576Z,0.00
2017-10-18T01:46:50.694Z,0.00
2017-10-18T01:47:50.672Z,0.00
2017-10-18T01:48:50.715Z,0.00
2017-10-18T01:49:50.765Z,0.00
2017-10-18T01:50:50.809Z,0.00
2017-10-18T01:51:50.930Z,0.00
2017-10-18T01:52:50.899Z,0.00
2017-10-18T01:53:50.946Z,0.00
2017-10-18T01:54:50.993Z,0.00
2017-10-18T01:55:51.040Z,0.00
2017-10-18T01:56:51.150Z,0.00
2017-10-18T01:57:51.197Z,0.00
2017-10-18T01:58:51.177Z,0.00
2017-10-18T01:59:51.224Z,0.00
2017-10-18T02:00:51.273Z,0.00
2017-10-18T02:01:51.317Z,0.00
2017-10-18T02:02:51.427Z,0.00
2017-10-18T02:03:51.410Z,0.00
2017-10-18T02:04:51.454Z,0.00
2017-10-18T02:05:51.502Z,0.00
2017-10-18T02:06:51.548Z,0.00
2017-10-18T02:07:51.659Z,0.00
2017-10-18T02:08:51.637Z,0.00
2017-10-18T02:09:51.685Z,0.00
2017-10-18T02:10:51.732Z,0.00
2017-10-18T02:11:51.778Z,0.00
2017-10-18T02:12:51.889Z,0.00
2017-10-18T02:13:51.870Z,0.00
2017-10-18T02:14:51.913Z,0.00
2017-10-18T02:15:51.962Z,0.00
2017-10-18T02:16:52.010Z,0.00
2017-10-18T02:17:52.125Z,0.00
2017-10-18T02:18:52.103Z,0.00
2017-10-18T02:19:52.150Z,0.00
2017-10-18T02:20:52.195Z,0.00
2017-10-18T02:21:52.243Z,0.00
2017-10-18T02:22:52.371Z,0.00
2017-10-18T02:23:52.331Z,0.00
2017-10-18T02:24:52.383Z,0.00
2017-10-18T02:25:52.424Z,0.00
2017-10-18T02:26:52.471Z,0.00
2017-10-18T02:27:52.597Z,0.00
2017-10-18T02:28:52.564Z,0.00
2017-10-18T02:29:52.611Z,0.00
2017-10-18T02:30:52.658Z,0.00
2017-10-18T02:31:52.701Z,0.00
2017-10-18T02:32:52.812Z,0.00
2017-10-18T02:33:52.864Z,0.00
2017-10-18T02:34:52.844Z,0.00
2017-10-18T02:35:52.890Z,0.00
2017-10-18T02:36:52.933Z,0.00
2017-10-18T02:37:52.985Z,0.00
2017-10-18T02:38:53.089Z,0.00
2017-10-18T02:39:53.072Z,0.00
2017-10-18T02:40:53.116Z,0.00
2017-10-18T02:41:53.163Z,0.00
2017-10-18T02:42:53.210Z,0.00
2017-10-18T02:43:53.324Z,0.00
2017-10-18T02:44:53.306Z,0.00
2017-10-18T02:45:53.350Z,0.00
2017-10-18T02:46:53.394Z,0.00
2017-10-18T02:47:53.440Z,0.00
2017-10-18T02:48:53.549Z,0.00
2017-10-18T02:49:53.532Z,0.00
2017-10-18T02:50:53.578Z,0.00
2017-10-18T02:51:54.401Z,0.00
2017-10-18T02:52:53.672Z,0.00
2017-10-18T02:53:53.779Z,0.00
2017-10-18T02:54:53.765Z,0.00
2017-10-18T02:55:53.811Z,0.00
2017-10-18T02:56:53.858Z,0.00
2017-10-18T02:57:53.903Z,0.00
2017-10-18T02:58:54.012Z,0.00
2017-10-18T02:59:53.993Z,0.00
2017-10-18T03:00:54.039Z,0.00
2017-10-18T03:01:54.086Z,0.00
2017-10-18T03:02:54.133Z,0.00
2017-10-18T03:03:54.243Z,0.00
2017-10-18T03:04:54.225Z,0.00
2017-10-18T03:05:54.270Z,0.00
2017-10-18T03:06:54.317Z,0.00
2017-10-18T03:07:54.369Z,0.00
2017-10-18T03:08:54.471Z,0.00
2017-10-18T03:09:54.457Z,0.00
2017-10-18T03:10:54.501Z,0.00
2017-10-18T03:11:54.548Z,0.00
2017-10-18T03:12:54.610Z,0.00
2017-10-18T03:13:54.721Z,0.00
2017-10-18T03:14:54.685Z,0.00
2017-10-18T03:15:54.734Z,0.00
2017-10-18T03:16:54.778Z,0.00
2017-10-18T03:17:54.823Z,0.00
2017-10-18T03:18:55.956Z,0.00
2017-10-18T03:19:54.980Z,0.00
2017-10-18T03:20:54.965Z,0.00
2017-10-18T03:21:55.010Z,0.00
2017-10-18T03:22:55.053Z,0.00
2017-10-18T03:23:55.097Z,0.00
2017-10-18T03:24:55.207Z,0.00
2017-10-18T03:25:55.194Z,0.00
2017-10-18T03:26:55.240Z,0.00
2017-10-18T03:27:55.282Z,0.00
2017-10-18T03:28:55.331Z,0.00
2017-10-18T03:29:55.440Z,0.00
2017-10-18T03:30:55.422Z,0.00
2017-10-18T03:31:55.465Z,0.00
2017-10-18T03:32:55.512Z,0.00
2017-10-18T03:33:55.562Z,0.00
2017-10-18T03:34:55.670Z,0.00
2017-10-18T03:35:55.649Z,0.00
2017-10-18T03:36:55.694Z,0.00
2017-10-18T03:37:55.746Z,0.00
2017-10-18T03:38:55.784Z,0.00
2017-10-18T03:39:55.899Z,0.00
2017-10-18T03:40:55.877Z,0.00
2017-10-18T03:41:55.925Z,0.00
2017-10-18T03:42:55.970Z,0.00
2017-10-18T03:43:56.018Z,0.00
2017-10-18T03:44:56.128Z,0.00
2017-10-18T03:45:56.108Z,0.00
2017-10-18T03:46:56.154Z,0.00
2017-10-18T03:47:56.201Z,0.00
2017-10-18T03:48:56.251Z,0.00
2017-10-18T03:49:56.370Z,0.00
2017-10-18T03:50:56.338Z,0.00
2017-10-18T03:51:56.385Z,0.00
2017-10-18T03:52:56.426Z,0.00
2017-10-18T03:53:56.486Z,0.00
2017-10-18T03:54:56.605Z,0.00
2017-10-18T03:55:56.569Z,0.00
2017-10-18T03:56:56.615Z,0.00
2017-10-18T03:57:56.660Z,0.00
2017-10-18T03:58:56.707Z,0.00
2017-10-18T03:59:56.820Z,0.00
2017-10-18T04:00:56.804Z,0.00
2017-10-18T04:01:56.845Z,0.00
2017-10-18T04:02:56.886Z,0.00
2017-10-18T04:03:56.935Z,0.00
2017-10-18T04:04:57.061Z,0.00
2017-10-18T04:05:57.026Z,0.00
2017-10-18T04:06:57.075Z,0.00
2017-10-18T04:07:57.116Z,0.00
2017-10-18T04:08:57.163Z,0.00
2017-10-18T04:09:57.273Z,0.00
2017-10-18T04:10:57.320Z,0.00
2017-10-18T04:11:57.303Z,0.00
2017-10-18T04:12:57.347Z,0.00
2017-10-18T04:13:57.394Z,0.00
2017-10-18T04:14:57.441Z,0.00
2017-10-18T04:15:57.548Z,0.00
2017-10-18T04:16:57.529Z,0.00
2017-10-18T04:17:57.576Z,0.00
2017-10-18T04:18:57.620Z,0.00
2017-10-18T04:19:57.667Z,0.00
2017-10-18T04:20:57.779Z,0.00
2017-10-18T04:21:57.757Z,0.00
2017-10-18T04:22:57.808Z,0.00
2017-10-18T04:23:57.851Z,0.00
2017-10-18T04:24:57.897Z,0.00
2017-10-18T04:25:58.010Z,0.00
2017-10-18T04:26:57.985Z,0.00
2017-10-18T04:27:58.034Z,0.00
2017-10-18T04:28:58.078Z,0.00
2017-10-18T04:29:58.127Z,0.00
2017-10-18T04:30:58.244Z,0.00
2017-10-18T04:31:58.215Z,0.00
2017-10-18T04:32:58.262Z,0.00
2017-10-18T04:33:58.306Z,0.00
2017-10-18T04:34:58.353Z,0.00
2017-10-18T04:35:58.494Z,0.00
2017-10-18T04:36:58.446Z,0.00
2017-10-18T04:37:58.490Z,0.00
2017-10-18T04:38:58.541Z,0.00
2017-10-18T04:39:58.581Z,0.00
2017-10-18T04:40:58.694Z,0.00
2017-10-18T04:41:58.672Z,0.00
2017-10-18T04:42:58.716Z,0.00
2017-10-18T04:43:58.763Z,0.00
2017-10-18T04:44:58.806Z,0.00
2017-10-18T04:45:58.936Z,0.00
2017-10-18T04:46:58.900Z,0.00
2017-10-18T04:47:58.944Z,0.00
2017-10-18T04:48:58.988Z,0.00
2017-10-18T04:49:59.035Z,0.00
2017-10-18T04:50:59.143Z,0.00
2017-10-18T04:51:59.189Z,0.00
2017-10-18T04:52:59.172Z,0.00
2017-10-18T04:53:59.221Z,0.00
2017-10-18T04:54:59.263Z,0.00
2017-10-18T04:55:59.306Z,0.00
2017-10-18T04:56:59.416Z,0.00
2017-10-18T04:57:59.395Z,0.00
2017-10-18T04:58:59.444Z,0.00
2017-10-18T04:59:59.491Z,0.00
2017-10-18T05:00:59.539Z,0.00
2017-10-18T05:01:59.647Z,0.00
2017-10-18T05:02:59.626Z,0.00
2017-10-18T05:03:59.668Z,0.00
2017-10-18T05:04:59.716Z,0.00
2017-10-18T05:05:59.763Z,0.00
2017-10-18T05:06:59.884Z,0.00
2017-10-18T05:07:59.851Z,0.00
2017-10-18T05:08:59.897Z,0.00
2017-10-18T05:09:59.941Z,0.00
2017-10-18T05:10:59.986Z,0.00
2017-10-18T05:12:00.119Z,0.00
2017-10-18T05:13:00.077Z,0.00
2017-10-18T05:14:00.123Z,0.00
2017-10-18T05:15:00.169Z,0.00
2017-10-18T05:16:00.211Z,4.00
2017-10-18T05:17:00.343Z,4.00
2017-10-18T05:18:00.305Z,4.00
2017-10-18T05:19:00.346Z,4.00
2017-10-18T05:20:00.395Z,8.00
2017-10-18T05:21:00.439Z,4.00
2017-10-18T05:22:00.578Z,8.00
2017-10-18T05:23:00.532Z,12.00
2017-10-18T05:24:00.577Z,12.00
2017-10-18T05:25:00.620Z,16.00
2017-10-18T05:26:00.668Z,16.00
2017-10-18T05:27:00.939Z,24.00
2017-10-18T05:28:00.758Z,28.00
2017-10-18T05:29:00.805Z,32.00
2017-10-18T05:30:00.846Z,40.00
2017-10-18T05:31:00.890Z,48.00
2017-10-18T05:32:00.937Z,60.00
2017-10-18T05:33:01.048Z,72.00
2017-10-18T05:34:01.027Z,84.00
2017-10-18T05:35:01.073Z,96.00
2017-10-18T05:36:01.558Z,108.00
2017-10-18T05:37:01.163Z,128.00
2017-10-18T05:38:01.304Z,144.00
2017-10-18T05:39:01.253Z,156.00
2017-10-18T05:40:01.660Z,176.00
2017-10-18T05:41:03.111Z,192.00
2017-10-18T05:42:02.960Z,208.00
2017-10-18T05:43:01.498Z,240.00
2017-10-18T05:44:03.702Z,264.00
2017-10-18T05:45:03.434Z,284.00
2017-10-18T05:46:02.585Z,308.00
2017-10-18T05:47:01.613Z,332.00
2017-10-18T05:48:01.725Z,376.00
2017-10-18T05:49:01.716Z,412.00
2017-10-18T05:50:01.753Z,440.00
2017-10-18T05:51:01.804Z,476.00
2017-10-18T05:52:01.838Z,528.00
2017-10-18T05:53:01.946Z,540.00
2017-10-18T05:54:01.929Z,592.00
2017-10-18T05:55:01.973Z,640.00
2017-10-18T05:56:02.022Z,676.00
2017-10-18T05:57:02.064Z,720.00
2017-10-18T05:58:02.171Z,772.00
2017-10-18T05:59:02.155Z,812.00
2017-10-18T06:00:02.205Z,836.00
2017-10-18T06:01:02.245Z,932.00
2017-10-18T06:02:02.811Z,996.00
2017-10-18T06:03:02.403Z,1044.00
2017-10-18T06:04:02.381Z,1080.00
2017-10-18T06:05:02.424Z,1180.00
2017-10-18T06:06:03.311Z,1260.00
2017-10-18T06:07:02.517Z,1392.00
2017-10-18T06:08:02.628Z,1404.00
2017-10-18T06:09:02.608Z,1416.00
2017-10-18T06:10:02.652Z,1480.00
2017-10-18T06:11:02.699Z,1464.00
2017-10-18T06:12:02.745Z,1464.00
2017-10-18T06:13:02.867Z,1504.00
2017-10-18T06:14:02.834Z,1612.00
2017-10-18T06:15:02.880Z,1732.00
2017-10-18T06:16:02.927Z,1788.00
2017-10-18T06:17:02.975Z,1740.00
2017-10-18T06:18:03.090Z,1788.00
2017-10-18T06:19:03.125Z,1992.00
2017-10-18T06:20:05.661Z,2112.00
2017-10-18T06:21:05.678Z,2360.00
2017-10-18T06:22:05.430Z,2608.00
2017-10-18T06:23:03.245Z,2748.00
2017-10-18T06:24:03.358Z,2860.00
2017-10-18T06:25:03.337Z,2996.00
2017-10-18T06:26:03.382Z,3288.00
2017-10-18T06:27:03.428Z,3184.00
2017-10-18T06:28:03.474Z,2972.00
2017-10-18T06:29:03.584Z,2900.00
2017-10-18T06:30:03.570Z,3160.00
2017-10-18T06:31:03.618Z,3116.00
2017-10-18T06:32:03.655Z,3020.00
2017-10-18T06:33:03.704Z,3020.00
2017-10-18T06:34:03.812Z,3188.00
2017-10-18T06:35:03.796Z,3876.00
2017-10-18T06:36:03.842Z,4680.00
2017-10-18T06:37:03.885Z,4896.00
2017-10-18T06:38:03.933Z,4696.00
2017-10-18T06:39:04.044Z,4568.00
2017-10-18T06:40:04.026Z,4580.00
2017-10-18T06:41:04.072Z,4044.00
2017-10-18T06:42:04.116Z,4020.00
2017-10-18T06:43:04.168Z,4124.00
2017-10-18T06:44:04.276Z,3976.00
2017-10-18T06:45:04.262Z,3748.00
2017-10-18T06:46:04.303Z,3544.00
2017-10-18T06:47:04.350Z,3188.00
2017-10-18T06:48:04.396Z,3492.00
2017-10-18T06:49:04.521Z,3544.00
2017-10-18T06:50:04.488Z,3108.00
2017-10-18T06:51:04.537Z,3216.00
2017-10-18T06:52:04.581Z,3448.00
2017-10-18T06:53:04.625Z,3900.00
2017-10-18T06:54:04.738Z,4044.00
2017-10-18T06:55:04.787Z,4136.00
2017-10-18T06:56:04.767Z,4704.00
2017-10-18T06:57:04.817Z,4848.00
2017-10-18T06:58:04.858Z,4744.00
2017-10-18T06:59:04.907Z,5068.00
2017-10-18T07:00:05.024Z,4892.00
2017-10-18T07:01:05.004Z,3724.00
2017-10-18T07:02:05.050Z,3444.00
2017-10-18T07:03:05.094Z,3272.00
2017-10-18T07:04:05.142Z,3460.00
2017-10-18T07:05:05.252Z,3268.00
2017-10-18T07:06:05.236Z,4104.00
2017-10-18T07:07:05.281Z,5468.00
2017-10-18T07:08:05.330Z,6108.00
2017-10-18T07:09:05.379Z,4836.00
2017-10-18T07:10:05.513Z,4384.00
2017-10-18T07:11:05.475Z,5484.00
2017-10-18T07:12:05.517Z,4336.00
2017-10-18T07:13:05.569Z,3656.00
2017-10-18T07:14:05.613Z,4052.00
2017-10-18T07:15:05.734Z,5000.00
2017-10-18T07:16:05.704Z,5372.00
2017-10-18T07:17:05.750Z,5276.00
2017-10-18T07:18:05.803Z,4956.00
2017-10-18T07:19:05.843Z,5680.00
2017-10-18T07:20:05.990Z,6000.00
2017-10-18T07:21:05.937Z,5908.00
2017-10-18T07:22:05.986Z,6868.00
2017-10-18T07:23:06.032Z,7528.00
2017-10-18T07:24:06.088Z,9324.00
2017-10-18T07:25:06.195Z,10540.00
2017-10-18T07:26:06.173Z,9936.00
2017-10-18T07:27:06.220Z,7900.00
2017-10-18T07:28:06.269Z,8380.00
2017-10-18T07:29:06.315Z,9676.00
2017-10-18T07:30:06.449Z,10664.00
2017-10-18T07:31:06.409Z,10736.00
2017-10-18T07:32:06.455Z,10804.00
2017-10-18T07:33:06.505Z,10764.00
2017-10-18T07:34:06.552Z,10144.00
2017-10-18T07:35:06.700Z,12432.00
2017-10-18T07:36:06.650Z,11416.00
2017-10-18T07:37:06.689Z,12108.00
2017-10-18T07:38:06.739Z,17440.00
2017-10-18T07:39:06.785Z,17728.00
2017-10-18T07:40:06.919Z,18272.00
2017-10-18T07:41:06.880Z,18752.00
2017-10-18T07:42:06.930Z,19392.00
2017-10-18T07:43:06.979Z,20672.00
2017-10-18T07:44:07.028Z,22368.00
2017-10-18T07:45:07.142Z,23552.00
2017-10-18T07:46:07.186Z,22816.00
2017-10-18T07:47:07.171Z,21760.00
2017-10-18T07:48:07.223Z,23552.00
2017-10-18T07:49:07.273Z,23520.00
2017-10-18T07:50:07.322Z,23072.00
2017-10-18T07:51:07.429Z,22048.00
2017-10-18T07:52:07.416Z,21696.00
2017-10-18T07:53:07.465Z,22592.00
2017-10-18T07:54:07.519Z,25600.00
2017-10-18T07:55:07.566Z,27680.00
2017-10-18T07:56:07.682Z,28256.00
2017-10-18T07:57:07.662Z,27808.00
2017-10-18T07:58:07.714Z,27712.00
2017-10-18T07:59:07.763Z,29312.00
2017-10-18T08:00:07.815Z,29952.00
2017-10-18T08:01:07.931Z,28704.00
2017-10-18T08:02:08.823Z,31488.00
2017-10-18T08:03:07.963Z,22464.00
2017-10-18T08:04:08.018Z,30336.00
2017-10-18T08:05:08.064Z,34368.00
2017-10-18T08:06:08.183Z,36672.00
2017-10-18T08:07:08.169Z,37312.00
2017-10-18T08:08:08.218Z,33984.00
2017-10-18T08:09:08.267Z,33888.00
2017-10-18T08:10:08.321Z,35552.00
2017-10-18T08:11:08.440Z,37344.00
2017-10-18T08:12:08.423Z,28704.00
2017-10-18T08:13:08.473Z,20320.00
2017-10-18T08:14:08.525Z,20960.00
2017-10-18T08:15:08.574Z,22976.00
2017-10-18T08:16:08.708Z,27296.00
2017-10-18T08:17:08.680Z,29120.00
2017-10-18T08:18:08.730Z,20704.00
2017-10-18T08:19:08.781Z,17116.00
2017-10-18T08:20:08.831Z,19744.00
2017-10-18T08:21:08.942Z,23072.00
2017-10-18T08:22:08.993Z,19296.00
2017-10-18T08:23:08.981Z,22112.00
2017-10-18T08:24:09.031Z,32320.00
2017-10-18T08:25:09.082Z,27488.00
2017-10-18T08:26:09.129Z,22464.00
2017-10-18T08:27:09.245Z,21024.00
2017-10-18T08:28:09.233Z,20768.00
2017-10-18T08:29:09.283Z,24192.00
2017-10-18T08:30:09.335Z,28128.00
2017-10-18T08:31:09.383Z,43232.00
2017-10-18T08:32:09.495Z,35552.00
2017-10-18T08:33:09.491Z,21472.00
2017-10-18T08:34:09.527Z,28320.00
2017-10-18T08:35:09.582Z,21152.00
2017-10-18T08:36:09.632Z,21600.00
2017-10-18T08:37:09.745Z,28608.00
2017-10-18T08:38:09.727Z,36800.00
2017-10-18T08:39:09.777Z,43936.00
2017-10-18T08:40:09.830Z,54720.00
2017-10-18T08:41:09.875Z,55200.00
2017-10-18T08:42:10.002Z,57376.00
2017-10-18T08:43:09.979Z,57632.00
2017-10-18T08:44:10.026Z,57728.00
2017-10-18T08:45:10.075Z,66144.00
2017-10-18T08:46:10.125Z,66656.00
2017-10-18T08:47:10.245Z,64096.00
2017-10-18T08:48:10.225Z,56736.00
2017-10-18T08:49:10.277Z,50656.00
2017-10-18T08:50:10.324Z,42720.00
2017-10-18T08:51:10.380Z,51200.00
2017-10-18T08:52:10.513Z,41536.00
2017-10-18T08:53:10.475Z,58560.00
2017-10-18T08:54:11.335Z,67104.00
2017-10-18T08:55:10.577Z,40384.00
2017-10-18T08:56:10.631Z,77568.00
2017-10-18T08:57:10.755Z,81216.00
2017-10-18T08:58:10.729Z,77312.00
2017-10-18T08:59:10.779Z,70848.00
2017-10-18T09:00:12.649Z,65856.00
2017-10-18T09:01:10.880Z,71456.00
2017-10-18T09:02:11.017Z,71200.00
2017-10-18T09:03:11.048Z,58368.00
2017-10-18T09:04:11.033Z,73088.00
2017-10-18T09:05:11.085Z,69888.00
2017-10-18T09:06:11.135Z,45760.00
2017-10-18T09:07:11.189Z,79392.00
2017-10-18T09:08:11.305Z,81152.00
2017-10-18T09:09:11.286Z,74816.00
2017-10-18T09:10:11.337Z,67584.00
2017-10-18T09:11:11.392Z,61888.00
2017-10-18T09:12:11.441Z,59904.00
2017-10-18T09:13:11.557Z,63168.00
2017-10-18T09:14:11.543Z,69760.00
2017-10-18T09:15:11.594Z,79872.00
2017-10-18T09:16:11.647Z,84096.00
2017-10-18T09:17:11.698Z,89248.00
2017-10-18T09:18:11.827Z,89472.00
2017-10-18T09:19:11.802Z,82560.00
2017-10-18T09:20:11.855Z,79424.00
2017-10-18T09:21:11.906Z,57280.00
2017-10-18T09:22:11.958Z,65984.00
2017-10-18T09:23:12.092Z,60064.00
2017-10-18T09:24:12.065Z,58688.00
2017-10-18T09:25:12.117Z,62176.00
2017-10-18T09:26:12.166Z,64032.00
2017-10-18T09:27:12.223Z,58592.00
2017-10-18T09:28:12.339Z,51424.00
2017-10-18T09:29:12.391Z,48672.00
2017-10-18T09:30:12.382Z,52704.00
2017-10-18T09:31:12.434Z,59616.00
2017-10-18T09:32:12.489Z,71392.00
2017-10-18T09:33:12.538Z,65920.00
2017-10-18T09:34:12.661Z,71840.00
2017-10-18T09:35:12.653Z,63072.00
2017-10-18T09:36:12.713Z,56224.00
2017-10-18T09:37:12.757Z,60128.00
2017-10-18T09:38:12.817Z,70560.00
2017-10-18T09:39:12.929Z,78272.00
2017-10-18T09:40:12.918Z,80352.00
2017-10-18T09:41:12.973Z,72384.00
2017-10-18T09:42:13.024Z,76416.00
2017-10-18T09:43:13.079Z,80064.00
2017-10-18T09:44:13.200Z,77888.00
2017-10-18T09:45:13.185Z,76768.00
2017-10-18T09:46:13.237Z,76640.00
2017-10-18T09:47:13.289Z,77440.00
2017-10-18T09:48:13.347Z,75936.00
2017-10-18T09:49:13.481Z,75424.00
2017-10-18T09:50:13.451Z,74016.00
2017-10-18T09:51:13.504Z,77920.00
2017-10-18T09:52:13.561Z,80224.00
2017-10-18T09:53:13.612Z,79584.00
2017-10-18T09:54:13.728Z,82624.00
2017-10-18T09:55:13.779Z,88544.00
2017-10-18T09:56:13.778Z,94400.00
2017-10-18T09:57:13.820Z,84000.00
2017-10-18T09:58:13.871Z,77088.00
2017-10-18T09:59:13.927Z,76320.00
2017-10-18T10:00:14.045Z,77632.00
2017-10-18T10:01:14.031Z,78272.00
2017-10-18T10:02:14.085Z,78016.00
2017-10-18T10:03:14.138Z,70208.00
2017-10-18T10:04:14.194Z,62912.00
2017-10-18T10:05:14.309Z,59264.00
2017-10-18T10:06:14.296Z,56256.00
2017-10-18T10:07:14.347Z,58240.00
2017-10-18T10:08:14.397Z,57536.00
2017-10-18T10:09:14.460Z,67584.00
2017-10-18T10:10:14.573Z,74528.00
2017-10-18T10:11:14.558Z,78176.00
2017-10-18T10:12:14.610Z,81952.00
2017-10-18T10:13:14.667Z,88224.00
2017-10-18T10:14:14.715Z,92384.00
2017-10-18T10:15:14.854Z,98880.00
2017-10-18T10:16:14.823Z,99520.00
2017-10-18T10:17:14.872Z,104256.00
2017-10-18T10:18:14.925Z,97760.00
2017-10-18T10:19:14.978Z,55104.00
2017-10-18T10:20:15.116Z,87328.00
2017-10-18T10:21:15.086Z,73888.00
2017-10-18T10:22:15.136Z,74752.00
2017-10-18T10:23:15.194Z,75552.00
2017-10-18T10:24:15.242Z,70304.00
2017-10-18T10:25:15.361Z,95392.00
2017-10-18T10:26:15.413Z,75040.00
2017-10-18T10:27:15.402Z,75808.00
2017-10-18T10:28:15.452Z,75584.00
2017-10-18T10:29:15.512Z,75360.00
2017-10-18T10:30:15.575Z,73792.00
2017-10-18T10:31:15.680Z,73472.00
2017-10-18T10:32:15.668Z,77408.00
2017-10-18T10:33:15.717Z,79552.00
2017-10-18T10:34:15.772Z,80768.00
2017-10-18T10:35:15.824Z,90752.00
2017-10-18T10:36:15.945Z,92096.00
2017-10-18T10:37:15.928Z,84448.00
2017-10-18T10:38:15.986Z,94432.00
2017-10-18T10:39:16.035Z,94240.00
2017-10-18T10:40:16.089Z,92160.00
2017-10-18T10:41:16.232Z,88608.00
2017-10-18T10:42:16.193Z,86944.00
2017-10-18T10:43:16.245Z,77120.00
2017-10-18T10:44:16.298Z,67552.00
2017-10-18T10:45:16.349Z,62080.00
2017-10-18T10:46:16.471Z,62144.00
2017-10-18T10:47:16.462Z,64480.00
2017-10-18T10:48:16.511Z,69792.00
2017-10-18T10:49:16.565Z,68416.00
2017-10-18T10:50:16.615Z,94560.00
2017-10-18T10:51:16.735Z,88480.00
2017-10-18T10:52:16.716Z,80000.00
2017-10-18T10:53:16.770Z,96896.00
2017-10-18T10:54:16.830Z,98784.00
2017-10-18T10:55:16.880Z,97120.00
2017-10-18T10:56:16.995Z,81984.00
2017-10-18T10:57:16.982Z,72736.00
2017-10-18T10:58:17.036Z,82528.00
2017-10-18T10:59:17.087Z,90816.00
2017-10-18T11:00:17.139Z,99776.00
2017-10-18T11:01:17.258Z,109792.00
2017-10-18T11:02:17.248Z,101152.00
2017-10-18T11:03:17.301Z,106016.00
2017-10-18T11:04:17.357Z,84672.00
2017-10-18T11:05:17.405Z,66688.00
2017-10-18T11:06:17.523Z,59328.00
2017-10-18T11:07:17.514Z,62368.00
2017-10-18T11:08:17.566Z,62848.00
2017-10-18T11:09:17.623Z,72448.00
2017-10-18T11:10:17.673Z,78336.00
2017-10-18T11:11:17.791Z,79680.00
2017-10-18T11:12:17.782Z,79008.00
2017-10-18T11:13:17.831Z,77024.00
2017-10-18T11:14:17.888Z,78272.00
2017-10-18T11:15:17.938Z,83616.00
2017-10-18T11:16:18.062Z,84384.00
2017-10-18T11:17:18.045Z,81600.00
2017-10-18T11:18:18.102Z,80640.00
2017-10-18T11:19:18.154Z,76256.00
2017-10-18T11:20:18.209Z,77472.00
2017-10-18T11:21:18.345Z,79712.00
2017-10-18T11:22:18.314Z,82112.00
2017-10-18T11:23:18.370Z,86144.00
2017-10-18T11:24:18.428Z,89824.00
2017-10-18T11:25:18.477Z,97280.00
2017-10-18T11:26:18.618Z,99552.00
2017-10-18T11:27:18.586Z,95776.00
2017-10-18T11:28:18.637Z,87008.00
2017-10-18T11:29:18.695Z,73984.00
2017-10-18T11:30:18.750Z,66016.00
2017-10-18T11:31:18.862Z,67232.00
2017-10-18T11:32:18.919Z,72320.00
2017-10-18T11:33:18.907Z,75456.00
2017-10-18T11:34:18.960Z,77728.00
2017-10-18T11:35:19.015Z,78272.00
2017-10-18T11:36:19.070Z,83232.00
2017-10-18T11:37:19.190Z,92160.00
2017-10-18T11:38:19.189Z,96032.00
2017-10-18T11:39:19.239Z,93984.00
2017-10-18T11:40:19.290Z,86912.00
2017-10-18T11:41:19.337Z,80256.00
2017-10-18T11:42:19.456Z,71680.00
2017-10-18T11:43:19.447Z,68672.00
2017-10-18T11:44:19.502Z,71168.00
2017-10-18T11:45:19.553Z,76384.00
2017-10-18T11:46:19.608Z,78784.00
2017-10-18T11:47:19.726Z,79552.00
2017-10-18T11:48:20.398Z,76128.00
2017-10-18T11:49:19.770Z,72128.00
2017-10-18T11:50:19.824Z,67808.00
2017-10-18T11:51:20.396Z,67712.00
2017-10-18T11:52:20.002Z,70080.00
2017-10-18T11:53:19.985Z,74144.00
2017-10-18T11:54:20.040Z,80960.00
2017-10-18T11:55:20.098Z,84704.00
2017-10-18T11:56:20.148Z,85792.00
2017-10-18T11:57:20.265Z,82880.00
2017-10-18T11:58:20.316Z,77056.00
2017-10-18T11:59:20.305Z,72224.00
2017-10-18T12:00:20.362Z,68864.00
2017-10-18T12:01:20.415Z,67040.00
2017-10-18T12:02:20.466Z,65440.00
2017-10-18T12:03:20.584Z,60480.00
2017-10-18T12:04:20.575Z,56736.00
2017-10-18T12:05:20.627Z,53408.00
2017-10-18T12:06:20.685Z,50528.00
2017-10-18T12:07:20.736Z,55168.00
2017-10-18T12:08:20.855Z,64032.00
2017-10-18T12:09:20.851Z,72640.00
2017-10-18T12:10:20.896Z,76800.00
2017-10-18T12:11:20.953Z,77952.00
2017-10-18T12:12:21.004Z,81216.00
2017-10-18T12:13:21.125Z,81408.00
2017-10-18T12:14:21.119Z,76032.00
2017-10-18T12:15:21.173Z,65632.00
2017-10-18T12:16:21.226Z,59008.00
2017-10-18T12:17:21.277Z,60672.00
2017-10-18T12:18:21.400Z,68448.00
2017-10-18T12:19:21.454Z,77856.00
2017-10-18T12:20:21.446Z,82304.00
2017-10-18T12:21:21.496Z,80960.00
2017-10-18T12:22:21.550Z,76448.00
2017-10-18T12:23:21.611Z,74688.00
2017-10-18T12:24:21.735Z,73152.00
2017-10-18T12:25:21.717Z,74304.00
2017-10-18T12:26:21.772Z,75936.00
2017-10-18T12:27:21.840Z,79904.00
2017-10-18T12:28:21.881Z,83232.00